Greentop, MO (63546)

9:51 AM CST on January 26, 2015 (GMT -0600)
APRSWXNET Lancaster MO US | Change Station
CLOSE
Current Station
Personal Weather Station
Location: Lancaster, MO
Elevation: 931 ft
Nearby Weather Stations

Elev 931 ft 40.52 °N, 92.52 °W | Updated 45 minutes ago

Partly Cloudy
Partly Cloudy
31 °F
Feels Like 25 °F
N
6
Wind Variable Wind from SW
Gusts 0.0 mph

Today
High -- | Low -- °F
--% Chance of Precip.
Yesterday
High -- | Low -- °F
Precip. -- in
7:24 AM 5:21 PM
Waxing Crescent, 44% visible
Pressure 30.00 in
Visibility 9.0 miles
Clouds Scattered Clouds 11000 ft
Windchill 25 °F
Dew Point 28 °F
Humidity 90%
Rainfall -999.00 in
Snow Depth Not available.
UV 1 out of 12
Pollen .10 out of 12
Air Quality Not available.
Flu Activity Not available.
METAR KIRK 261455Z AUTO 22007KT 9SM SCT110 00/M01 A2996 RMK AO2 SLP157 T00001011

More Conditions Fewer Conditions

Pressure 30.00 in
Visibility 9.0 miles
Clouds Scattered Clouds 11000 ft
Windchill 25 °F
Dew Point 28 °F
Humidity 90%
Rainfall -999.00 in
Snow Depth Not available.
UV 1 out of 12
Pollen .10 out of 12
Air Quality Not available.
Flu Activity Not available.
METAR KIRK 261455Z AUTO 22007KT 9SM SCT110 00/M01 A2996 RMK AO2 SLP157 T00001011

More Conditions Fewer Conditions

10-Day Weather Forecast

Almanac

Astronomy

Jan. 26, 2015 Rise Set
Actual Time
Civil Twilight
Nautical Twilight
Astronomical Twilight
Moon
Length of Visible Light
Length of Day
Tomorrow will be .
, % of the Moon is Illuminated

Today's Extremes

State Highs State Lows

Community

WunderPhotos

Upload Photos

1,790,249 photos uploaded!

WunderBlogs® & News

Nearby

Air Quality

  Air Quality AQ Index Pollutant
Not available.

Snow Depth

Station Depth Elevation

Earthquake Activity

City Distance Mag. Time & Date
Minimum magnitude displayed is 2.5.

Coastal Water Temperatures

Place Temperature

Nearby Weather Stations